Cruise inventory

FRV Scotia 1692S

Cruise summary report

Cruise Info. 
Ship name (ship code)FRV Scotia (749S)
Cruise identifier1692S
Cruise period1992-12-12 — 1992-12-21
StatusCompleted
Port of departureAberdeen, United Kingdom
Port of returnAberdeen, United Kingdom
Objectives1. To collect hydrographic and chemical samples along the Fair Isle-Munken (Faroe) and Nolso (Faroe)-Flugga (Shetland) standard sections.
2. To survey the satandard JONSIS, East Shetland (ES) and northern North Sea (EC) sections.
3. Conduct restricted survey of the Moray Firth.
4. Collect the Fair Isle and Aberdeen radio-caesium samples for analysis by MAFF, Lowestoft.
5. To obtain photographs of sampling procedures and also of oil platforms.
Chief scientistBill Turrell (Scottish Office Agriculture and Fisheries Department Aberdeen Marine Laboratory)
Cruise reportFRV Scotia 1692S cruise report sc16_92.pdf — access key 'C' (0.09 MB) 
Ocean/sea areas 
GeneralNorth Sea
North East Atlantic Ocean (limit 40W)
Track chartsFRV Scotia 1692S cruise track — trk3894.html
Measurements 
Physical oceanography 
Water bottle stationsQuantity: number of stations = 26
CTD stationsQuantity: number of stations = 68
Description: +10 H09s
Current profiler (eg ADCP)Description: tests
Chemical oceanography 
PhosphateQuantity: number of samples = 36
NitrateQuantity: number of samples = 36
AmmoniaQuantity: number of samples = 36
SilicateQuantity: number of samples = 36
RadioactivityQuantity: number of samples = 4
Description: radio-caesium monitoring.
Biology and fisheries 
Phytoplankton pigs (eg chlorophyll, fluorescence)Quantity: number of samples = 12
Description: chlorophyll
Data held at BODC 
Series/Profiles 
76  CTD/STD cast
Density of the water column
Electrical conductivity of the water column
Vertical spatial coordinates
Salinity of the water column
Temperature of the water column
Density of the water column
Electrical conductivity of the water column
Vertical spatial coordinates
Salinity of the water column
Temperature of the water column

BODC idDate/TimeLocationDoc.
4169461992-12-12 16:47 57° 47' 57" N  1° 59' 47" W  View metadata report for BODC series reference number 416946
4169581992-12-12 17:57 57° 53' 7" N  1° 45' 10" W  View metadata report for BODC series reference number 416958
4169711992-12-12 19:01 57° 58' 5" N  1° 30' 6" W  View metadata report for BODC series reference number 416971
4169831992-12-12 20:05 58° 3' 4" N  1° 15' 6" W  View metadata report for BODC series reference number 416983
4169951992-12-12 21:12 58° 8' 6" N  0° 59' 39" W  View metadata report for BODC series reference number 416995
4170091992-12-12 22:17 58° 13' 3" N  0° 44' 53" W  View metadata report for BODC series reference number 417009
4170101992-12-12 23:24 58° 17' 56" N  0° 29' 58" W  View metadata report for BODC series reference number 417010
4170221992-12-13 00:31 58° 22' 50" N  0° 15' 7" W  View metadata report for BODC series reference number 417022
4170341992-12-13 01:48 58° 27' 49" N  0° 0' 4" W  View metadata report for BODC series reference number 417034
4170461992-12-13 04:02 58° 32' 53" N  0° 14' 48" E  View metadata report for BODC series reference number 417046
4170581992-12-13 05:40 58° 38' 1" N  0° 29' 56" E  View metadata report for BODC series reference number 417058
4170711992-12-13 06:51 58° 43' 7" N  0° 44' 58" E  View metadata report for BODC series reference number 417071
4170831992-12-13 07:59 58° 48' 10" N  1° 0' 0" E  View metadata report for BODC series reference number 417083
4170951992-12-13 09:02 58° 52' 57" N  1° 15' 8" E  View metadata report for BODC series reference number 417095
4171021992-12-13 10:12 58° 57' 59" N  1° 29' 58" E  View metadata report for BODC series reference number 417102
4171141992-12-13 12:18 59° 16' 48" N  1° 20' 1" E  View metadata report for BODC series reference number 417114
4171261992-12-13 13:52 59° 16' 50" N  1° 0' 14" E  View metadata report for BODC series reference number 417126
4171381992-12-13 15:27 59° 17' 1" N  0° 40' 10" E  View metadata report for BODC series reference number 417138
4171511992-12-13 16:56 59° 17' 3" N  0° 20' 9" E  View metadata report for BODC series reference number 417151
4171631992-12-13 18:19 59° 17' 4" N  0° 0' 4" E  View metadata report for BODC series reference number 417163
4171751992-12-13 19:57 59° 17' 5" N  0° 19' 45" W  View metadata report for BODC series reference number 417175
4171871992-12-13 21:57 59° 16' 58" N  0° 39' 54" W  View metadata report for BODC series reference number 417187
4171991992-12-13 23:46 59° 16' 55" N  0° 59' 56" W  View metadata report for BODC series reference number 417199
4172061992-12-14 01:07 59° 16' 46" N  1° 9' 33" W  View metadata report for BODC series reference number 417206
4172181992-12-14 02:20 59° 16' 52" N  1° 19' 22" W  View metadata report for BODC series reference number 417218
4172311992-12-14 03:27 59° 16' 46" N  1° 29' 46" W  View metadata report for BODC series reference number 417231
4172431992-12-14 04:24 59° 16' 56" N  1° 39' 51" W  View metadata report for BODC series reference number 417243
4172551992-12-14 05:15 59° 17' 1" N  1° 48' 6" W  View metadata report for BODC series reference number 417255
4172671992-12-14 06:08 59° 17' 6" N  1° 55' 58" W  View metadata report for BODC series reference number 417267
4172791992-12-14 06:59 59° 17' 4" N  2° 4' 59" W  View metadata report for BODC series reference number 417279
4172801992-12-14 07:50 59° 17' 12" N  2° 14' 4" W  View metadata report for BODC series reference number 417280
4172921992-12-14 16:19 59° 59' 54" N  1° 0' 5" W  View metadata report for BODC series reference number 417292
4173111992-12-14 17:00 59° 59' 56" N  0° 50' 1" W  View metadata report for BODC series reference number 417311
4173231992-12-14 17:44 59° 59' 56" N  0° 39' 58" W  View metadata report for BODC series reference number 417323
4173351992-12-14 18:28 60° 0' 0" N  0° 30' 5" W  View metadata report for BODC series reference number 417335
4173471992-12-14 19:15 60° 0' 4" N  0° 19' 46" W  View metadata report for BODC series reference number 417347
4173591992-12-14 20:34 59° 59' 57" N  0° 0' 11" E  View metadata report for BODC series reference number 417359
4173601992-12-14 23:00 60° 0' 6" N  0° 20' 2" E  View metadata report for BODC series reference number 417360
4173721992-12-15 00:09 59° 59' 55" N  0° 39' 37" E  View metadata report for BODC series reference number 417372
4173841992-12-15 01:15 59° 59' 51" N  0° 59' 37" E  View metadata report for BODC series reference number 417384
4173961992-12-15 02:24 59° 59' 48" N  1° 19' 38" E  View metadata report for BODC series reference number 417396
4174031992-12-15 03:29 59° 59' 50" N  1° 39' 25" E  View metadata report for BODC series reference number 417403
4174151992-12-15 06:16 60° 24' 53" N  1° 40' 2" E  View metadata report for BODC series reference number 417415
4174271992-12-15 07:32 60° 24' 58" N  1° 20' 8" E  View metadata report for BODC series reference number 417427
4174391992-12-15 08:48 60° 24' 58" N  0° 59' 43" E  View metadata report for BODC series reference number 417439
4174401992-12-15 10:09 60° 24' 58" N  0° 40' 1" E  View metadata report for BODC series reference number 417440
4174521992-12-15 11:27 60° 25' 1" N  0° 19' 57" E  View metadata report for BODC series reference number 417452
4174641992-12-15 12:42 60° 24' 56" N  0° 0' 19" E  View metadata report for BODC series reference number 417464
4174761992-12-15 14:21 60° 24' 56" N  0° 19' 37" W  View metadata report for BODC series reference number 417476
4174881992-12-15 15:12 60° 24' 45" N  0° 29' 40" W  View metadata report for BODC series reference number 417488
4175071992-12-15 15:55 60° 28' 50" N  0° 39' 33" W  View metadata report for BODC series reference number 417507
4175191992-12-15 17:26 60° 25' 4" N  0° 59' 54" W  View metadata report for BODC series reference number 417519
4175201992-12-15 20:02 60° 50' 14" N  0° 43' 32" W  View metadata report for BODC series reference number 417520
4175321992-12-15 20:31 60° 50' 1" N  0° 40' 9" W  View metadata report for BODC series reference number 417532
4175441992-12-15 21:07 60° 49' 59" N  0° 29' 49" W  View metadata report for BODC series reference number 417544
4175561992-12-15 21:47 60° 49' 57" N  0° 19' 57" W  View metadata report for BODC series reference number 417556
4175681992-12-15 22:51 60° 49' 56" N  0° 0' 11" E  View metadata report for BODC series reference number 417568
4175811992-12-16 00:13 60° 49' 52" N  0° 19' 36" E  View metadata report for BODC series reference number 417581
4175931992-12-16 01:24 60° 49' 40" N  0° 39' 46" E  View metadata report for BODC series reference number 417593
4176001992-12-16 02:35 60° 49' 47" N  0° 59' 40" E  View metadata report for BODC series reference number 417600
4176121992-12-16 03:47 60° 50' 2" N  1° 19' 48" E  View metadata report for BODC series reference number 417612
4176241992-12-16 05:07 60° 49' 57" N  1° 39' 24" E  View metadata report for BODC series reference number 417624
4176361992-12-16 13:09 60° 56' 4" N  0° 59' 9" W  View metadata report for BODC series reference number 417636
4176481992-12-16 16:32 61° 4' 4" N  1° 52' 54" W  View metadata report for BODC series reference number 417648
4176611992-12-16 18:15 61° 8' 42" N  2° 9' 44" W  View metadata report for BODC series reference number 417661
4176731992-12-20 00:20 60° 20' 0" N  4° 10' 36" W  View metadata report for BODC series reference number 417673
4176851992-12-20 02:49 60° 16' 16" N  3° 58' 58" W  View metadata report for BODC series reference number 417685
4176971992-12-20 04:22 60° 9' 59" N  3° 44' 5" W  View metadata report for BODC series reference number 417697
4177041992-12-20 15:53 58° 24' 56" N  3° 1' 59" W  View metadata report for BODC series reference number 417704
4177161992-12-20 16:30 58° 24' 57" N  2° 54' 45" W  View metadata report for BODC series reference number 417716
4177281992-12-20 16:53 58° 24' 57" N  2° 49' 58" W  View metadata report for BODC series reference number 417728
4177411992-12-20 17:29 58° 24' 56" N  2° 39' 55" W  View metadata report for BODC series reference number 417741
4177531992-12-20 18:14 58° 24' 55" N  2° 29' 48" W  View metadata report for BODC series reference number 417753
4177651992-12-20 19:04 58° 24' 58" N  2° 15' 0" W  View metadata report for BODC series reference number 417765
4177771992-12-20 19:58 58° 24' 57" N  2° 0' 3" W  View metadata report for BODC series reference number 417777
4177891992-12-20 20:55 58° 24' 56" N  1° 44' 59" W  View metadata report for BODC series reference number 417789